sensor_id;sensor_type;location;lat;lon;timestamp;P1;durP1;ratioP1;P2;durP2;ratioP2
17741;SDS011;8993;51.822;-2.268;2024-03-23T00:54:54;11.40;;;1.89;;
17741;SDS011;8993;51.822;-2.268;2024-03-23T00:59:58;12.52;;;1.90;;
17741;SDS011;8993;51.822;-2.268;2024-03-23T01:05:02;11.01;;;1.63;;
17741;SDS011;8993;51.822;-2.268;2024-03-23T01:10:10;15.06;;;1.82;;
17741;SDS011;8993;51.822;-2.268;2024-03-23T01:15:13;13.16;;;1.96;;
17741;SDS011;8993;51.822;-2.268;2024-03-23T01:20:18;13.90;;;1.94;;
17741;SDS011;8993;51.822;-2.268;2024-03-23T01:25:21;11.48;;;1.74;;
17741;SDS011;8993;51.822;-2.268;2024-03-23T01:30:24;14.42;;;2.38;;
17741;SDS011;8993;51.822;-2.268;2024-03-23T01:35:28;15.15;;;1.91;;
17741;SDS011;8993;51.822;-2.268;2024-03-23T01:40:31;15.64;;;1.80;;
17741;SDS011;8993;51.822;-2.268;2024-03-23T01:45:35;13.73;;;1.93;;
17741;SDS011;8993;51.822;-2.268;2024-03-23T01:50:39;15.99;;;2.21;;
17741;SDS011;8993;51.822;-2.268;2024-03-23T01:55:42;15.41;;;1.97;;
17741;SDS011;8993;51.822;-2.268;2024-03-23T02:00:46;16.75;;;2.73;;
17741;SDS011;8993;51.822;-2.268;2024-03-23T02:05:49;14.23;;;1.88;;
17741;SDS011;8993;51.822;-2.268;2024-03-23T02:10:53;14.19;;;2.07;;
17741;SDS011;8993;51.822;-2.268;2024-03-23T02:15:57;15.31;;;2.33;;
17741;SDS011;8993;51.822;-2.268;2024-03-23T02:21:00;13.56;;;1.93;;
17741;SDS011;8993;51.822;-2.268;2024-03-23T02:26:04;12.25;;;1.78;;
17741;SDS011;8993;51.822;-2.268;2024-03-23T02:31:08;13.52;;;2.06;;
17741;SDS011;8993;51.822;-2.268;2024-03-23T02:36:11;14.18;;;2.19;;
17741;SDS011;8993;51.822;-2.268;2024-03-23T02:41:15;12.27;;;1.77;;
17741;SDS011;8993;51.822;-2.268;2024-03-23T02:46:19;12.48;;;2.02;;
17741;SDS011;8993;51.822;-2.268;2024-03-23T02:51:22;13.40;;;1.83;;
17741;SDS011;8993;51.822;-2.268;2024-03-23T02:56:26;14.44;;;1.97;;
17741;SDS011;8993;51.822;-2.268;2024-03-23T03:01:29;13.89;;;1.98;;
17741;SDS011;8993;51.822;-2.268;2024-03-23T03:06:33;13.57;;;2.08;;
17741;SDS011;8993;51.822;-2.268;2024-03-23T03:11:36;13.23;;;2.02;;
17741;SDS011;8993;51.822;-2.268;2024-03-23T03:16:40;14.27;;;2.03;;
17741;SDS011;8993;51.822;-2.268;2024-03-23T03:21:44;15.67;;;2.12;;
17741;SDS011;8993;51.822;-2.268;2024-03-23T03:26:47;12.94;;;1.65;;
17741;SDS011;8993;51.822;-2.268;2024-03-23T03:31:51;13.83;;;1.84;;
17741;SDS011;8993;51.822;-2.268;2024-03-23T03:36:54;12.16;;;1.77;;
17741;SDS011;8993;51.822;-2.268;2024-03-23T03:41:58;16.04;;;2.17;;
17741;SDS011;8993;51.822;-2.268;2024-03-23T03:47:02;13.89;;;1.87;;
17741;SDS011;8993;51.822;-2.268;2024-03-23T03:52:05;13.88;;;2.20;;
17741;SDS011;8993;51.822;-2.268;2024-03-23T03:57:09;15.05;;;1.93;;
17741;SDS011;8993;51.822;-2.268;2024-03-23T04:02:17;15.28;;;1.99;;
17741;SDS011;8993;51.822;-2.268;2024-03-23T04:07:21;14.03;;;2.09;;
17741;SDS011;8993;51.822;-2.268;2024-03-23T04:12:25;16.40;;;2.03;;
17741;SDS011;8993;51.822;-2.268;2024-03-23T04:17:28;14.89;;;2.04;;
17741;SDS011;8993;51.822;-2.268;2024-03-23T04:22:32;14.21;;;1.97;;
17741;SDS011;8993;51.822;-2.268;2024-03-23T04:27:35;16.61;;;1.92;;
17741;SDS011;8993;51.822;-2.268;2024-03-23T04:32:39;15.13;;;2.05;;
17741;SDS011;8993;51.822;-2.268;2024-03-23T04:37:43;14.43;;;2.33;;
17741;SDS011;8993;51.822;-2.268;2024-03-23T04:42:46;16.02;;;2.05;;
17741;SDS011;8993;51.822;-2.268;2024-03-23T04:47:50;15.99;;;1.95;;
17741;SDS011;8993;51.822;-2.268;2024-03-23T04:52:53;16.08;;;2.08;;
17741;SDS011;8993;51.822;-2.268;2024-03-23T04:57:57;13.51;;;2.24;;
17741;SDS011;8993;51.822;-2.268;2024-03-23T05:03:01;14.12;;;1.88;;
17741;SDS011;8993;51.822;-2.268;2024-03-23T05:08:05;13.82;;;2.07;;
17741;SDS011;8993;51.822;-2.268;2024-03-23T05:13:08;14.38;;;2.04;;
17741;SDS011;8993;51.822;-2.268;2024-03-23T05:18:11;13.79;;;2.11;;
17741;SDS011;8993;51.822;-2.268;2024-03-23T05:23:15;15.53;;;2.55;;
17741;SDS011;8993;51.822;-2.268;2024-03-23T05:28:19;13.81;;;2.24;;
17741;SDS011;8993;51.822;-2.268;2024-03-23T05:33:22;16.16;;;2.12;;
17741;SDS011;8993;51.822;-2.268;2024-03-23T05:38:26;15.17;;;2.25;;
17741;SDS011;8993;51.822;-2.268;2024-03-23T05:43:29;15.28;;;1.98;;
17741;SDS011;8993;51.822;-2.268;2024-03-23T05:48:33;15.44;;;2.30;;
17741;SDS011;8993;51.822;-2.268;2024-03-23T05:53:36;19.83;;;2.46;;
17741;SDS011;8993;51.822;-2.268;2024-03-23T05:58:40;13.32;;;2.02;;
17741;SDS011;8993;51.822;-2.268;2024-03-23T06:03:44;14.69;;;2.27;;
17741;SDS011;8993;51.822;-2.268;2024-03-23T06:08:47;14.55;;;2.22;;
17741;SDS011;8993;51.822;-2.268;2024-03-23T06:13:52;14.40;;;2.34;;
17741;SDS011;8993;51.822;-2.268;2024-03-23T06:18:55;13.97;;;2.19;;
17741;SDS011;8993;51.822;-2.268;2024-03-23T06:23:58;13.78;;;2.05;;
17741;SDS011;8993;51.822;-2.268;2024-03-23T06:29:02;14.31;;;2.18;;
17741;SDS011;8993;51.822;-2.268;2024-03-23T06:34:05;13.98;;;2.19;;
17741;SDS011;8993;51.822;-2.268;2024-03-23T06:39:09;13.95;;;2.11;;
17741;SDS011;8993;51.822;-2.268;2024-03-23T06:44:13;13.18;;;1.72;;
17741;SDS011;8993;51.822;-2.268;2024-03-23T06:49:16;13.49;;;1.91;;
17741;SDS011;8993;51.822;-2.268;2024-03-23T06:54:20;16.62;;;2.15;;
17741;SDS011;8993;51.822;-2.268;2024-03-23T06:59:24;13.67;;;2.05;;
17741;SDS011;8993;51.822;-2.268;2024-03-23T07:04:27;15.23;;;2.16;;
17741;SDS011;8993;51.822;-2.268;2024-03-23T07:09:32;13.50;;;2.13;;
17741;SDS011;8993;51.822;-2.268;2024-03-23T07:14:35;13.29;;;1.77;;
17741;SDS011;8993;51.822;-2.268;2024-03-23T07:19:39;14.47;;;1.86;;
17741;SDS011;8993;51.822;-2.268;2024-03-23T07:24:43;16.24;;;2.18;;
17741;SDS011;8993;51.822;-2.268;2024-03-23T07:29:46;12.00;;;1.80;;
17741;SDS011;8993;51.822;-2.268;2024-03-23T07:34:50;13.58;;;1.99;;
17741;SDS011;8993;51.822;-2.268;2024-03-23T07:39:53;16.59;;;2.33;;
17741;SDS011;8993;51.822;-2.268;2024-03-23T07:44:57;16.46;;;2.19;;
17741;SDS011;8993;51.822;-2.268;2024-03-23T07:50:01;15.31;;;1.94;;
17741;SDS011;8993;51.822;-2.268;2024-03-23T07:55:05;14.99;;;1.99;;
17741;SDS011;8993;51.822;-2.268;2024-03-23T08:00:08;14.71;;;2.33;;
17741;SDS011;8993;51.822;-2.268;2024-03-23T08:05:12;12.86;;;1.86;;
17741;SDS011;8993;51.822;-2.268;2024-03-23T08:10:15;13.46;;;2.01;;
17741;SDS011;8993;51.822;-2.268;2024-03-23T08:15:19;13.90;;;2.02;;
17741;SDS011;8993;51.822;-2.268;2024-03-23T08:20:23;15.28;;;2.13;;
17741;SDS011;8993;51.822;-2.268;2024-03-23T08:25:26;16.11;;;2.17;;
17741;SDS011;8993;51.822;-2.268;2024-03-23T08:30:30;14.66;;;2.25;;
17741;SDS011;8993;51.822;-2.268;2024-03-23T08:35:33;17.00;;;2.19;;
17741;SDS011;8993;51.822;-2.268;2024-03-23T08:40:37;14.31;;;2.11;;
17741;SDS011;8993;51.822;-2.268;2024-03-23T08:45:41;15.77;;;2.24;;
17741;SDS011;8993;51.822;-2.268;2024-03-23T08:50:44;15.52;;;2.12;;
17741;SDS011;8993;51.822;-2.268;2024-03-23T08:55:52;15.28;;;2.14;;
17741;SDS011;8993;51.822;-2.268;2024-03-23T09:00:52;14.01;;;1.99;;
17741;SDS011;8993;51.822;-2.268;2024-03-23T09:05:55;13.88;;;2.12;;
17741;SDS011;8993;51.822;-2.268;2024-03-23T09:11:00;15.18;;;2.05;;
17741;SDS011;8993;51.822;-2.268;2024-03-23T09:16:03;15.49;;;1.94;;
17741;SDS011;8993;51.822;-2.268;2024-03-23T09:21:10;16.11;;;2.39;;
17741;SDS011;8993;51.822;-2.268;2024-03-23T09:26:10;15.87;;;2.27;;
17741;SDS011;8993;51.822;-2.268;2024-03-23T09:31:14;12.58;;;2.01;;
17741;SDS011;8993;51.822;-2.268;2024-03-23T09:36:17;16.77;;;2.25;;
17741;SDS011;8993;51.822;-2.268;2024-03-23T09:41:21;13.38;;;1.78;;
17741;SDS011;8993;51.822;-2.268;2024-03-23T09:46:25;14.29;;;1.85;;
17741;SDS011;8993;51.822;-2.268;2024-03-23T09:51:28;15.80;;;2.14;;
17741;SDS011;8993;51.822;-2.268;2024-03-23T09:56:32;13.97;;;1.91;;
17741;SDS011;8993;51.822;-2.268;2024-03-23T10:01:36;13.69;;;2.20;;
17741;SDS011;8993;51.822;-2.268;2024-03-23T10:06:39;13.08;;;1.79;;
17741;SDS011;8993;51.822;-2.268;2024-03-23T10:11:43;12.08;;;1.62;;
17741;SDS011;8993;51.822;-2.268;2024-03-23T10:16:46;8.63;;;1.45;;
17741;SDS011;8993;51.822;-2.268;2024-03-23T10:21:52;6.75;;;0.87;;
17741;SDS011;8993;51.822;-2.268;2024-03-23T10:26:55;7.29;;;1.18;;
17741;SDS011;8993;51.822;-2.268;2024-03-23T10:32:07;9.09;;;1.17;;
17741;SDS011;8993;51.822;-2.268;2024-03-23T10:37:01;8.24;;;1.33;;
17741;SDS011;8993;51.822;-2.268;2024-03-23T10:42:05;6.70;;;1.28;;
17741;SDS011;8993;51.822;-2.268;2024-03-23T10:47:09;8.86;;;1.37;;
17741;SDS011;8993;51.822;-2.268;2024-03-23T10:52:12;8.05;;;1.25;;
17741;SDS011;8993;51.822;-2.268;2024-03-23T10:57:17;7.17;;;1.27;;
17741;SDS011;8993;51.822;-2.268;2024-03-23T11:02:20;7.08;;;1.05;;
17741;SDS011;8993;51.822;-2.268;2024-03-23T11:07:30;6.93;;;1.00;;
17741;SDS011;8993;51.822;-2.268;2024-03-23T11:12:28;5.96;;;0.99;;
17741;SDS011;8993;51.822;-2.268;2024-03-23T11:17:30;6.47;;;0.92;;
17741;SDS011;8993;51.822;-2.268;2024-03-23T11:22:41;8.54;;;1.18;;
17741;SDS011;8993;51.822;-2.268;2024-03-23T11:27:38;8.24;;;1.09;;
17741;SDS011;8993;51.822;-2.268;2024-03-23T11:32:41;7.69;;;1.00;;
17741;SDS011;8993;51.822;-2.268;2024-03-23T11:37:45;7.98;;;1.21;;
17741;SDS011;8993;51.822;-2.268;2024-03-23T11:42:55;7.18;;;1.05;;
17741;SDS011;8993;51.822;-2.268;2024-03-23T11:53:06;7.99;;;1.21;;
17741;SDS011;8993;51.822;-2.268;2024-03-23T11:58:01;7.19;;;1.15;;
17741;SDS011;8993;51.822;-2.268;2024-03-23T12:03:05;7.49;;;1.11;;
17741;SDS011;8993;51.822;-2.268;2024-03-23T12:13:14;7.18;;;0.99;;
17741;SDS011;8993;51.822;-2.268;2024-03-23T12:18:16;7.24;;;1.04;;
17741;SDS011;8993;51.822;-2.268;2024-03-23T12:23:20;5.17;;;0.93;;
17741;SDS011;8993;51.822;-2.268;2024-03-23T12:28:23;5.91;;;0.83;;
17741;SDS011;8993;51.822;-2.268;2024-03-23T12:33:27;6.69;;;0.99;;
17741;SDS011;8993;51.822;-2.268;2024-03-23T12:38:30;8.16;;;1.03;;
17741;SDS011;8993;51.822;-2.268;2024-03-23T12:43:34;6.62;;;1.03;;
17741;SDS011;8993;51.822;-2.268;2024-03-23T12:48:38;7.76;;;1.21;;
17741;SDS011;8993;51.822;-2.268;2024-03-23T12:53:41;7.46;;;0.93;;
17741;SDS011;8993;51.822;-2.268;2024-03-23T12:58:45;8.52;;;1.09;;
17741;SDS011;8993;51.822;-2.268;2024-03-23T13:03:49;6.74;;;1.19;;
17741;SDS011;8993;51.822;-2.268;2024-03-23T13:08:53;7.63;;;1.20;;
17741;SDS011;8993;51.822;-2.268;2024-03-23T13:13:56;8.48;;;1.27;;
17741;SDS011;8993;51.822;-2.268;2024-03-23T13:19:01;9.20;;;1.33;;
17741;SDS011;8993;51.822;-2.268;2024-03-23T13:24:04;8.14;;;1.37;;
17741;SDS011;8993;51.822;-2.268;2024-03-23T13:29:08;6.15;;;1.01;;
17741;SDS011;8993;51.822;-2.268;2024-03-23T13:34:11;8.44;;;1.16;;
17741;SDS011;8993;51.822;-2.268;2024-03-23T13:39:15;4.25;;;0.79;;
17741;SDS011;8993;51.822;-2.268;2024-03-23T13:44:19;5.46;;;0.76;;
17741;SDS011;8993;51.822;-2.268;2024-03-23T13:49:26;4.87;;;0.86;;
17741;SDS011;8993;51.822;-2.268;2024-03-23T13:54:26;4.36;;;0.78;;
17741;SDS011;8993;51.822;-2.268;2024-03-23T13:59:30;3.90;;;0.70;;
17741;SDS011;8993;51.822;-2.268;2024-03-23T14:04:33;6.37;;;0.96;;
17741;SDS011;8993;51.822;-2.268;2024-03-23T14:09:37;5.41;;;0.95;;
17741;SDS011;8993;51.822;-2.268;2024-03-23T14:14:41;7.94;;;1.13;;
17741;SDS011;8993;51.822;-2.268;2024-03-23T14:19:45;6.55;;;1.08;;
17741;SDS011;8993;51.822;-2.268;2024-03-23T14:24:48;7.17;;;1.13;;
17741;SDS011;8993;51.822;-2.268;2024-03-23T14:29:52;7.45;;;1.06;;
17741;SDS011;8993;51.822;-2.268;2024-03-23T14:35:04;8.99;;;1.27;;
17741;SDS011;8993;51.822;-2.268;2024-03-23T14:40:06;6.90;;;1.01;;
17741;SDS011;8993;51.822;-2.268;2024-03-23T14:45:00;7.09;;;1.22;;
17741;SDS011;8993;51.822;-2.268;2024-03-23T14:50:04;7.88;;;1.25;;
17741;SDS011;8993;51.822;-2.268;2024-03-23T14:55:09;6.61;;;1.14;;
17741;SDS011;8993;51.822;-2.268;2024-03-23T15:00:15;8.70;;;1.25;;
17741;SDS011;8993;51.822;-2.268;2024-03-23T15:05:19;6.09;;;0.95;;
17741;SDS011;8993;51.822;-2.268;2024-03-23T15:10:22;6.06;;;1.03;;
17741;SDS011;8993;51.822;-2.268;2024-03-23T15:15:26;6.13;;;1.00;;
17741;SDS011;8993;51.822;-2.268;2024-03-23T15:20:30;8.11;;;1.08;;
17741;SDS011;8993;51.822;-2.268;2024-03-23T15:25:34;7.43;;;1.28;;
17741;SDS011;8993;51.822;-2.268;2024-03-23T15:30:38;7.77;;;1.17;;
17741;SDS011;8993;51.822;-2.268;2024-03-23T15:35:43;9.22;;;1.41;;
17741;SDS011;8993;51.822;-2.268;2024-03-23T15:40:50;7.50;;;1.25;;
17741;SDS011;8993;51.822;-2.268;2024-03-23T15:45:54;7.97;;;1.32;;
17741;SDS011;8993;51.822;-2.268;2024-03-23T15:50:55;7.85;;;1.13;;
17741;SDS011;8993;51.822;-2.268;2024-03-23T15:55:58;8.10;;;1.37;;
17741;SDS011;8993;51.822;-2.268;2024-03-23T16:01:02;8.96;;;1.47;;
17741;SDS011;8993;51.822;-2.268;2024-03-23T16:06:06;8.87;;;1.48;;
17741;SDS011;8993;51.822;-2.268;2024-03-23T16:11:09;11.36;;;1.49;;
17741;SDS011;8993;51.822;-2.268;2024-03-23T16:16:12;11.44;;;1.78;;
17741;SDS011;8993;51.822;-2.268;2024-03-23T16:21:16;9.88;;;1.70;;
17741;SDS011;8993;51.822;-2.268;2024-03-23T16:26:20;11.46;;;1.66;;
17741;SDS011;8993;51.822;-2.268;2024-03-23T16:31:24;10.23;;;1.62;;
17741;SDS011;8993;51.822;-2.268;2024-03-23T16:36:30;11.20;;;1.58;;
17741;SDS011;8993;51.822;-2.268;2024-03-23T16:41:34;12.30;;;1.85;;
17741;SDS011;8993;51.822;-2.268;2024-03-23T16:46:38;10.10;;;1.72;;
17741;SDS011;8993;51.822;-2.268;2024-03-23T16:51:42;11.14;;;1.67;;
17741;SDS011;8993;51.822;-2.268;2024-03-23T16:56:46;13.13;;;1.76;;
17741;SDS011;8993;51.822;-2.268;2024-03-23T17:01:50;11.95;;;1.73;;
17741;SDS011;8993;51.822;-2.268;2024-03-23T17:06:53;12.86;;;1.85;;
17741;SDS011;8993;51.822;-2.268;2024-03-23T17:11:57;12.28;;;1.86;;
17741;SDS011;8993;51.822;-2.268;2024-03-23T17:17:01;12.56;;;1.87;;
17741;SDS011;8993;51.822;-2.268;2024-03-23T17:22:05;11.10;;;1.95;;
17741;SDS011;8993;51.822;-2.268;2024-03-23T17:27:09;11.84;;;1.82;;
17741;SDS011;8993;51.822;-2.268;2024-03-23T17:32:13;11.49;;;1.69;;
17741;SDS011;8993;51.822;-2.268;2024-03-23T17:37:17;10.49;;;1.61;;
17741;SDS011;8993;51.822;-2.268;2024-03-23T17:42:20;12.66;;;2.05;;
17741;SDS011;8993;51.822;-2.268;2024-03-23T17:47:25;10.74;;;1.77;;
17741;SDS011;8993;51.822;-2.268;2024-03-23T17:52:28;12.06;;;1.85;;
17741;SDS011;8993;51.822;-2.268;2024-03-23T17:57:32;12.14;;;2.04;;
17741;SDS011;8993;51.822;-2.268;2024-03-23T18:02:35;11.33;;;2.07;;
17741;SDS011;8993;51.822;-2.268;2024-03-23T18:07:39;13.16;;;2.56;;
17741;SDS011;8993;51.822;-2.268;2024-03-23T18:12:43;13.80;;;2.02;;
17741;SDS011;8993;51.822;-2.268;2024-03-23T18:17:47;13.90;;;1.91;;
17741;SDS011;8993;51.822;-2.268;2024-03-23T18:22:50;12.39;;;2.20;;
17741;SDS011;8993;51.822;-2.268;2024-03-23T18:27:54;12.36;;;2.01;;
17741;SDS011;8993;51.822;-2.268;2024-03-23T18:32:58;12.86;;;2.21;;
17741;SDS011;8993;51.822;-2.268;2024-03-23T18:38:02;12.69;;;2.14;;
17741;SDS011;8993;51.822;-2.268;2024-03-23T18:43:06;13.64;;;1.94;;
17741;SDS011;8993;51.822;-2.268;2024-03-23T18:48:10;13.12;;;2.21;;
17741;SDS011;8993;51.822;-2.268;2024-03-23T18:53:14;11.87;;;2.16;;
17741;SDS011;8993;51.822;-2.268;2024-03-23T18:58:18;14.23;;;2.58;;
17741;SDS011;8993;51.822;-2.268;2024-03-23T19:03:22;13.73;;;2.62;;
17741;SDS011;8993;51.822;-2.268;2024-03-23T19:08:25;14.35;;;2.57;;
17741;SDS011;8993;51.822;-2.268;2024-03-23T19:13:29;15.64;;;3.16;;
17741;SDS011;8993;51.822;-2.268;2024-03-23T19:18:33;14.27;;;3.05;;
17741;SDS011;8993;51.822;-2.268;2024-03-23T19:23:37;14.00;;;2.63;;
17741;SDS011;8993;51.822;-2.268;2024-03-23T19:28:41;14.12;;;2.52;;
17741;SDS011;8993;51.822;-2.268;2024-03-23T19:33:44;13.53;;;2.35;;
17741;SDS011;8993;51.822;-2.268;2024-03-23T19:38:48;14.48;;;2.13;;
17741;SDS011;8993;51.822;-2.268;2024-03-23T19:43:52;12.58;;;2.28;;
17741;SDS011;8993;51.822;-2.268;2024-03-23T19:48:56;12.52;;;2.14;;
17741;SDS011;8993;51.822;-2.268;2024-03-23T19:54:00;15.47;;;2.35;;
17741;SDS011;8993;51.822;-2.268;2024-03-23T19:59:04;12.99;;;2.42;;
17741;SDS011;8993;51.822;-2.268;2024-03-23T20:04:08;14.41;;;2.66;;
17741;SDS011;8993;51.822;-2.268;2024-03-23T20:09:12;14.97;;;2.81;;
17741;SDS011;8993;51.822;-2.268;2024-03-23T20:14:15;13.60;;;2.27;;
17741;SDS011;8993;51.822;-2.268;2024-03-23T20:19:19;13.02;;;2.61;;
17741;SDS011;8993;51.822;-2.268;2024-03-23T20:24:22;11.80;;;2.50;;
17741;SDS011;8993;51.822;-2.268;2024-03-23T20:29:26;12.99;;;2.02;;
17741;SDS011;8993;51.822;-2.268;2024-03-23T20:34:30;11.99;;;2.03;;
17741;SDS011;8993;51.822;-2.268;2024-03-23T20:39:33;12.72;;;1.95;;
17741;SDS011;8993;51.822;-2.268;2024-03-23T20:44:37;13.72;;;2.32;;
17741;SDS011;8993;51.822;-2.268;2024-03-23T20:49:41;12.65;;;2.06;;
17741;SDS011;8993;51.822;-2.268;2024-03-23T20:54:44;13.30;;;2.25;;
17741;SDS011;8993;51.822;-2.268;2024-03-23T20:59:48;15.10;;;2.21;;
17741;SDS011;8993;51.822;-2.268;2024-03-23T21:04:52;15.32;;;2.84;;
17741;SDS011;8993;51.822;-2.268;2024-03-23T21:09:56;16.28;;;2.48;;
17741;SDS011;8993;51.822;-2.268;2024-03-23T21:15:00;14.38;;;2.51;;
17741;SDS011;8993;51.822;-2.268;2024-03-23T21:20:04;14.04;;;2.49;;
17741;SDS011;8993;51.822;-2.268;2024-03-23T21:25:09;14.15;;;2.58;;
17741;SDS011;8993;51.822;-2.268;2024-03-23T21:30:11;14.70;;;2.41;;
17741;SDS011;8993;51.822;-2.268;2024-03-23T21:35:16;15.28;;;2.38;;
17741;SDS011;8993;51.822;-2.268;2024-03-23T21:40:19;15.17;;;2.57;;
17741;SDS011;8993;51.822;-2.268;2024-03-23T21:45:23;16.90;;;2.62;;
17741;SDS011;8993;51.822;-2.268;2024-03-23T21:50:29;16.90;;;2.62;;
17741;SDS011;8993;51.822;-2.268;2024-03-23T21:55:33;14.26;;;2.24;;
17741;SDS011;8993;51.822;-2.268;2024-03-23T22:00:37;15.28;;;2.75;;
17741;SDS011;8993;51.822;-2.268;2024-03-23T22:05:41;16.46;;;2.71;;
17741;SDS011;8993;51.822;-2.268;2024-03-23T22:10:45;17.08;;;2.80;;
17741;SDS011;8993;51.822;-2.268;2024-03-23T22:15:56;15.94;;;2.63;;
17741;SDS011;8993;51.822;-2.268;2024-03-23T22:20:56;16.12;;;2.41;;
17741;SDS011;8993;51.822;-2.268;2024-03-23T22:25:57;13.11;;;2.31;;
17741;SDS011;8993;51.822;-2.268;2024-03-23T22:31:01;16.54;;;2.63;;
17741;SDS011;8993;51.822;-2.268;2024-03-23T22:36:05;17.04;;;2.45;;
17741;SDS011;8993;51.822;-2.268;2024-03-23T22:41:09;17.07;;;2.76;;
17741;SDS011;8993;51.822;-2.268;2024-03-23T22:46:18;15.73;;;2.47;;
17741;SDS011;8993;51.822;-2.268;2024-03-23T22:51:20;16.02;;;2.75;;
17741;SDS011;8993;51.822;-2.268;2024-03-23T22:56:24;17.57;;;2.65;;
17741;SDS011;8993;51.822;-2.268;2024-03-23T23:01:28;16.48;;;3.03;;
17741;SDS011;8993;51.822;-2.268;2024-03-23T23:06:32;16.06;;;2.79;;
17741;SDS011;8993;51.822;-2.268;2024-03-23T23:11:36;16.07;;;2.93;;
17741;SDS011;8993;51.822;-2.268;2024-03-23T23:16:39;16.05;;;2.96;;
17741;SDS011;8993;51.822;-2.268;2024-03-23T23:21:43;18.82;;;3.23;;
17741;SDS011;8993;51.822;-2.268;2024-03-23T23:26:47;16.59;;;3.09;;
17741;SDS011;8993;51.822;-2.268;2024-03-23T23:31:50;18.01;;;2.92;;
17741;SDS011;8993;51.822;-2.268;2024-03-23T23:36:54;19.09;;;3.15;;
17741;SDS011;8993;51.822;-2.268;2024-03-23T23:41:58;17.01;;;3.08;;
17741;SDS011;8993;51.822;-2.268;2024-03-23T23:47:02;15.79;;;2.97;;
17741;SDS011;8993;51.822;-2.268;2024-03-23T23:52:05;18.14;;;3.32;;
17741;SDS011;8993;51.822;-2.268;2024-03-23T23:57:09;17.68;;;3.07;;
